nws-alerts: Checking more than four warning/county codes can delay the loading of your pages. You should use a cron job to get the data.

Nearby METAR Weather Reports

 

KETB - West Bend, WI
Distance from station: E 4mi, 6km
Updated: 04/08/2020 10:55pm
Clear
Clear
 Wind from WNW
Wind: WNW 10 mph , 17 km/h
Temperature: 45°F , 7°C
Wind Chill: 40°F , 4°C
Dew Point: 39°F , 4°C
Humidity: 81%
Barometer: 29.65 inHg , 1004.1 hPa
Clouds: Clear
Visibility: 10 miles , 16 km
2020/04/09 03:55 KETB 090355Z AUTO 29009KT 10SM CLR 07/04 A2965 RMK AO2
KFLD - Fond Du Lac, WI
Distance from station: W 34mi, 54km
Updated: 04/08/2020 10:53pm
Partly cloudy
Partly cloudy
 Wind from WNW
Wind: WNW 13 mph , 20 km/h
Temperature: 45°F , 7°C
Wind Chill: 39°F , 4°C
Dew Point: 30°F , -1°C
Humidity: 57%
Barometer: 29.66 inHg , 1004.4 hPa
Clouds: Partly cloudy
Visibility: 10 miles , 16 km
Cloud details: Partly cloudy 8000 ft
2020/04/09 03:53 KFLD 090353Z AUTO 29011KT 10SM SCT080 07/M01 A2966 RMK AO2 SLP044 T00721006
 
KSBM - Sheboygan, WI
Distance from station: NE 36mi, 57km
Updated: 04/08/2020 10:53pm
Clear
Clear
 Wind from W
Wind: W 10 mph , 17 km/h
Temperature: 48°F , 9°C
Wind Chill: 44°F , 7°C
Dew Point: 36°F , 2°C
Humidity: 62%
Barometer: 29.62 inHg , 1003 hPa
Clouds: Clear
Visibility: 10 miles , 16 km
2020/04/09 03:53 KSBM 090353Z AUTO 28009KT 10SM CLR 09/02 A2962 RMK AO2 SLP032 T00890022 $
KMKE - Milwaukee, WI
Distance from station: S 44mi, 70km
Updated: 04/08/2020 10:52pm
Clear
Clear
 Wind from W
Wind: W 10 mph , 17 km/h
Temperature: 48°F , 9°C
Wind Chill: 44°F , 7°C
Dew Point: 43°F , 6°C
Humidity: 82%
Barometer: 29.65 inHg , 1004.1 hPa
Clouds: Clear
Visibility: 10 miles , 16 km
2020/04/09 03:52 KMKE 090352Z 28009KT 10SM CLR 09/06 A2965 RMK AO2 SLP041 T00890056
 
KOSH - Oshkosh, WI
Distance from station: WNW 52mi, 83km
Updated: 04/08/2020 10:53pm
Overcast
Overcast
 Wind from WNW
Wind: WNW 15 mph , 24 km/h, Gust: 23 mph , 37 km/h
Temperature: 45°F , 7°C
Wind Chill: 38°F , 3°C
Dew Point: 27°F , -3°C
Humidity: 49%
Barometer: 29.65 inHg , 1004.1 hPa
Clouds: Overcast
Visibility: 10 miles , 16 km
Cloud details: Overcast 9000 ft
2020/04/09 03:53 KOSH 090353Z AUTO 29013G20KT 10SM OVC090 07/M03 A2965 RMK AO2 SLP040 T00721033
KENW - Kenosha, WI
Distance from station: SSE 69mi, 111km
Updated: 04/08/2020 10:53pm
Clear
Clear
 Wind from W
Wind: W 10 mph , 17 km/h
Temperature: 46°F , 8°C
Wind Chill: 41°F , 5°C
Dew Point: 43°F , 6°C
Humidity: 87%
Barometer: 29.67 inHg , 1004.7 hPa
Clouds: Clear
Visibility: 10 miles , 16 km
2020/04/09 03:53 KENW 090353Z AUTO 26009KT 10SM CLR 08/06 A2967 RMK AO2 SLP047 T00830061
 
KMSN - Madison, WI
Distance from station: SW 69mi, 111km
Updated: 04/08/2020 10:53pm
Clear
Clear
 Wind from WNW
Wind: WNW 7 mph , 11 km/h
Temperature: 45°F , 7°C
Wind Chill: 41°F , 5°C
Dew Point: 32°F , 0°C
Humidity: 61%
Barometer: 29.71 inHg , 1006.1 hPa
Clouds: Clear
Visibility: 10 miles , 16 km
2020/04/09 03:53 KMSN 090353Z 30006KT 10SM CLR 07/00 A2971 RMK AO2 SLP062 LAST T00720000
KSAW - Marquette, MI
Distance from station: N 262mi, 421km
Updated: 04/08/2020 10:58pm
Clear
Clear
 Wind from WNW
Wind: WNW 6 mph , 9 km/h
Temperature: 36°F , 2°C
Wind Chill: 31°F , -1°C
Dew Point: 21°F , -6°C
Humidity: 56%
Barometer: 29.59 inHg , 1002 hPa
Clouds: Clear
Visibility: 10 miles , 16 km
2020/04/09 03:58 KSAW 090358Z AUTO 30005KT 10SM CLR 02/M06 A2959 RMK AO2 T00171065
 
KIMT - Iron Mountain, MI
Distance from station: NNW 201mi, 323km
Updated: 04/08/2020 10:54pm
Clear
Clear
 Wind from NW
Wind: NW 6 mph , 9 km/h
Temperature: 36°F , 2°C
Wind Chill: 31°F , -1°C
Dew Point: 18°F , -8°C
Humidity: 48%
Barometer: 29.61 inHg , 1002.7 hPa
Clouds: Clear
Visibility: 10 miles , 16 km
2020/04/09 03:54 KIMT 090354Z AUTO 31005KT 10SM CLR 02/M08 A2961 RMK AO2 SLP035 T00221078
KGRB - Green Bay, WI
Distance from station: NNW 87mi, 140km
Updated: 04/08/2020 10:53pm
Mostly cloudy
Mostly cloudy
 Wind from NNW
Wind: NNW 8 mph , 13 km/h
Temperature: 48°F , 9°C
Wind Chill: 44°F , 7°C
Dew Point: 23°F , -5°C
Humidity: 37%
Barometer: 29.64 inHg , 1003.7 hPa
Clouds: Mostly cloudy
Visibility: 10 miles , 16 km
Cloud details: Mostly cloudy 10000 ft
Mostly cloudy 12000 ft
2020/04/09 03:53 KGRB 090353Z 33007KT 10SM BKN100 BKN120 09/M05 A2964 RMK AO2 SLP040 T00891050
 
KAUW - Wausau, WI
Distance from station: NW 155mi, 249km
Updated: 04/08/2020 10:54pm
Mostly cloudy
Mostly cloudy
 Wind from NW
Wind: NW 13 mph , 20 km/h, Gust: 22 mph , 35 km/h
Temperature: 45°F , 7°C
Wind Chill: 39°F , 4°C
Dew Point: 16°F , -9°C
Humidity: 31%
Barometer: 29.67 inHg , 1004.7 hPa
Clouds: Mostly cloudy
Visibility: 10 miles , 16 km
Cloud details: Mostly cloudy 8500 ft
Mostly cloudy 10000 ft
2020/04/09 03:54 KAUW 090354Z AUTO 31011G19KT 10SM BKN085 BKN100 07/M09 A2967 RMK AO2 SLP053 T00671089
KORD - Chicago O'Hare, IL
Distance from station: S 113mi, 181km
Updated: 04/08/2020 10:51pm
Clear
Clear
 Wind from W
Wind: W 12 mph , 19 km/h, Gust: 21 mph , 33 km/h
Temperature: 50°F , 10°C
Wind Chill: 45°F , 7°C
Dew Point: 45°F , 7°C
Humidity: 82%
Barometer: 29.69 inHg , 1005.4 hPa
Clouds: Clear
Visibility: 10 miles , 16 km
2020/04/09 03:51 KORD 090351Z 27010G18KT 10SM CLR 10/07 A2969 RMK AO2 SLP053 T01000067
 
KVOK - WIANG Volk Field, Camp Douglas, WI
Distance from station: WNW 120mi, 193km
Updated: 04/08/2020 10:56pm
Clear
Clear
 Wind from WNW
Wind: WNW 15 mph , 24 km/h, Gust: 22 mph , 35 km/h
Temperature: 43°F , 6°C
Wind Chill: 36°F , 2°C
Dew Point: 19°F , -7°C
Humidity: 39%
Barometer: 29.74 inHg , 1007.1 hPa
Clouds: Clear
Visibility: 10 miles , 16 km
2020/04/09 03:56 KVOK 090356Z AUTO 30013G19KT 10SM CLR 06/M07 A2974 RMK AO2 SLP078 T00621067
KLNR - Lone Rock, WI
Distance from station: W 114mi, 183km
Updated: 04/08/2020 10:56pm
Clear
Clear
 Wind from WNW
Wind: WNW 18 mph , 30 km/h, Gust: 31 mph , 50 km/h
Temperature: 46°F , 8°C
Wind Chill: 39°F , 4°C
Dew Point: 25°F , -4°C
Humidity: 43%
Barometer: 29.76 inHg , 1007.8 hPa
Clouds: Clear
Visibility: 10 miles , 16 km
2020/04/09 03:56 KLNR 090356Z AUTO 29016G27KT 10SM CLR 08/M04 A2976 RMK AO2 PK WND 29027/0353 SLP076 T00781039